USTRANSCOM 7560


ETAR
Ramstein Air Force Base
Ramstein, DE
BIKF
Keflavík International Airport
Reykjavík, IS

Activity Log

Date Flight Route Aircraft Duration
No Flights Yet

Route Details

Aircraft Information
Primary: Boeing 757-200SF
Backup: Not Available
Route Data
Distance: 1305nm
Sched. Duration: 3h 45m
Avg. Duration: 0h 00m (-345m)
Times Flown: 0
Recm'd Route: RUDOT LNO UN852 SPY L602 BERGI UM90 LONAM N610 RATSU ALDAN ASRUN ASRUN1H
Planned Altitude: 34,000ft
Origin Wx: ETAR 281156Z AUTO 23010KT 9999 FEW160 06/00 A3009 RMK AO2 SLP202 70011 T00581001 10058 20010 58008 FZRANO $
Dest. Wx: BIKF 281200Z 08011KT 9999 SCT011 BKN017 OVC035 M00/M01 Q0981 R10/720143
Notes: USTRANSCOM CONTRACT FLIGHT

Financial History
Total Freight: 0lbs
Average Load: 0lbs/flt
Fuel Used: 0lbs
Avg. Fuel Used: 0lbs/flt
Fuel Expense: $0
Avg. Fuel Expense: $0
Avg. Fuel Cost: $0/lbs
Total Gross Income: $0
Pilot Pay: $0
Total Expenses: $0
Total Revenue: $0
Average Revenue: $0